Time;durP1;ratioP1;P1;durP2;ratioP2;P2;SDS_P1;SDS_P2;PMS_P1;PMS_P2;Temp;Humidity;BMP_temperature;BMP_pressure;BME280_temperature;BME280_humidity;BME280_pressure;Samples;Min_cycle;Max_cycle;Signal;HPM_P1;HPM_P2
2022/10/17 00:00:01;;;;;;;;;;;;;;;10.98;100.00;101691.88;5030150;28;20010;-71
2022/10/17 00:02:26;;;;;;;;;;;;;;;10.99;100.00;101672.41;5030578;28;20189;-72
2022/10/17 00:04:51;;;;;;;;;;;;;;;11.02;100.00;101666.16;5030905;28;19933;-72
2022/10/17 00:07:17;;;;;;;;;;;;;;;11.04;100.00;101681.06;5029944;28;19999;-72
2022/10/17 00:09:42;;;;;;;;;;;;;;;11.07;100.00;101696.84;5030244;28;19979;-72
2022/10/17 00:12:08;;;;;;;;;;;;;;;11.08;100.00;101695.97;5029478;28;20695;-72
2022/10/17 00:14:33;;;;;;;;;;;;;;;11.11;100.00;101701.16;5037178;28;19933;-72
2022/10/17 00:16:59;;;;;;;;;;;;;;;11.14;100.00;101702.84;5030542;28;19990;-72
2022/10/17 00:19:24;;;;;;;;;;;;;;;11.17;100.00;101697.41;5028190;28;20646;-73
2022/10/17 00:21:49;;;;;;;;;;;;;;;11.19;100.00;101700.91;5024841;28;20050;-72
2022/10/17 00:24:15;;;;;;;;;;;;;;;11.22;100.00;101695.47;5024430;28;19926;-72
2022/10/17 00:26:40;;;;;;;;;;;;;;;11.24;100.00;101693.63;5028927;28;20171;-72
2022/10/17 00:29:05;;;;;;;;;;;;;;;11.26;100.00;101686.50;5029355;28;19937;-72
2022/10/17 00:31:31;;;;;;;;;;;;;;;11.29;100.00;101667.00;5029153;28;20002;-71
2022/10/17 00:33:56;;;;;;;;;;;;;;;11.29;100.00;101661.69;5027165;28;19928;-72
2022/10/17 00:36:22;;;;;;;;;;;;;;;11.30;100.00;101655.47;5023818;28;19940;-72
2022/10/17 00:38:49;;;;;;;;;;;;;;;11.30;100.00;101660.75;5028965;28;20893;-72
2022/10/17 00:41:15;;;;;;;;;;;;;;;11.31;100.00;101658.97;5023828;28;20043;-71
2022/10/17 00:44:07;;;;;;;;;;;;;;;11.30;100.00;101650.16;5023345;28;19932;-71
2022/10/17 00:46:34;;;;;;;;;;;;;;;11.31;100.00;101643.94;5013990;28;19937;-71
2022/10/17 00:49:00;;;;;;;;;;;;;;;11.31;100.00;101653.66;5045619;28;19925;-71
2022/10/17 00:51:36;;;;;;;;;;;;;;;11.31;100.00;101658.97;5028658;28;19932;-71
2022/10/17 00:54:02;;;;;;;;;;;;;;;11.33;100.00;101667.75;5029372;28;19932;-71
2022/10/17 00:56:27;;;;;;;;;;;;;;;11.33;100.00;101665.94;5029536;28;19924;-71
2022/10/17 00:58:53;;;;;;;;;;;;;;;11.34;100.00;101669.47;5029215;28;19935;-71
2022/10/17 01:01:18;;;;;;;;;;;;;;;11.33;100.00;101671.25;5028511;28;19925;-72
2022/10/17 01:03:44;;;;;;;;;;;;;;;11.34;100.00;101670.31;5028279;28;19932;-72
2022/10/17 01:06:09;;;;;;;;;;;;;;;11.35;100.00;101663.25;5027874;28;20507;-72
2022/10/17 01:08:34;;;;;;;;;;;;;;;11.35;100.00;101652.63;5027887;28;19933;-71
2022/10/17 01:11:18;;;;;;;;;;;;;;;11.37;100.00;101656.09;5029194;28;20403;-72
2022/10/17 01:13:46;;;;;;;;;;;;;;;11.37;100.00;101642.84;5028450;28;20627;-71
2022/10/17 01:16:25;;;;;;;;;;;;;;;11.39;100.00;101646.31;5023388;28;19936;-71
2022/10/17 01:18:56;;;;;;;;;;;;;;;11.39;100.00;101633.91;5022856;28;19925;-72
2022/10/17 01:21:25;;;;;;;;;;;;;;;11.39;100.00;101618.00;5028768;28;19989;-71
2022/10/17 01:24:09;;;;;;;;;;;;;;;11.40;100.00;101619.72;5028605;28;19932;-71
2022/10/17 01:26:44;;;;;;;;;;;;;;;11.42;100.00;101630.28;5028497;28;21630;-71
2022/10/17 01:29:24;;;;;;;;;;;;;;;11.43;100.00;101609.94;5022774;28;19933;-71
2022/10/17 01:31:51;;;;;;;;;;;;;;;11.45;100.00;101618.69;5023932;28;20371;-72
2022/10/17 01:34:22;;;;;;;;;;;;;;;11.46;100.00;101617.78;5044950;28;20271;-71
2022/10/17 01:36:54;;;;;;;;;;;;;;;11.46;100.00;101615.13;5022792;28;20587;-72
2022/10/17 01:39:19;;;;;;;;;;;;;;;11.45;100.00;101616.94;5023126;28;19955;-73
2022/10/17 01:41:51;;;;;;;;;;;;;;;11.46;100.00;101620.44;5028288;28;19924;-72
2022/10/17 01:44:18;;;;;;;;;;;;;;;11.45;100.00;101611.63;5045554;28;19928;-72
2022/10/17 01:46:45;;;;;;;;;;;;;;;11.43;100.00;101613.44;5023667;28;19936;-72
2022/10/17 01:49:12;;;;;;;;;;;;;;;11.41;100.00;101607.34;5044957;28;20426;-72
2022/10/17 01:51:37;;;;;;;;;;;;;;;11.40;100.00;101602.97;5044689;28;19925;-72
2022/10/17 01:54:10;;;;;;;;;;;;;;;11.39;100.00;101588.84;5028120;28;20082;-72
2022/10/17 01:56:35;;;;;;;;;;;;;;;11.39;100.00;101585.34;5021958;28;19984;-72
2022/10/17 01:59:05;;;;;;;;;;;;;;;11.38;100.00;101579.16;5020861;28;19933;-72
2022/10/17 02:01:31;;;;;;;;;;;;;;;11.38;100.00;101572.97;5027893;28;19924;-72
2022/10/17 02:03:56;;;;;;;;;;;;;;;11.39;100.00;101564.13;5021783;28;20686;-71
2022/10/17 02:06:21;;;;;;;;;;;;;;;11.39;100.00;101558.81;5028487;28;20313;-71
2022/10/17 02:08:47;;;;;;;;;;;;;;;11.39;100.00;101548.22;5027206;28;20219;-72
2022/10/17 02:11:23;;;;;;;;;;;;;;;11.39;100.00;101545.56;5023300;28;21931;-72
2022/10/17 02:14:03;;;;;;;;;;;;;;;11.39;100.00;101543.75;5009510;28;19936;-72
2022/10/17 02:16:29;;;;;;;;;;;;;;;11.40;100.00;101539.34;5027737;28;19967;-72
2022/10/17 02:19:00;;;;;;;;;;;;;;;11.39;100.00;101533.16;5027535;28;19925;-72
2022/10/17 02:21:25;;;;;;;;;;;;;;;11.39;100.00;101530.50;5027654;28;20003;-72
2022/10/17 02:23:53;;;;;;;;;;;;;;;11.40;100.00;101512.84;5027671;28;20023;-72
2022/10/17 02:26:37;;;;;;;;;;;;;;;11.40;100.00;101518.13;5027450;28;19929;-72
2022/10/17 02:29:11;;;;;;;;;;;;;;;11.40;100.00;101512.84;5021972;28;19933;-71
2022/10/17 02:31:43;;;;;;;;;;;;;;;11.40;100.00;101512.84;5027829;28;19925;-71
2022/10/17 02:34:12;;;;;;;;;;;;;;;11.40;100.00;101513.66;5026988;28;19920;-71
2022/10/17 02:36:42;;;;;;;;;;;;;;;11.40;100.00;101513.66;5027720;28;19978;-71
2022/10/17 02:39:07;;;;;;;;;;;;;;;11.41;100.00;101509.25;5044450;28;19925;-72
2022/10/17 02:41:32;;;;;;;;;;;;;;;11.41;100.00;101503.94;5027798;28;19929;-71
2022/10/17 02:43:58;;;;;;;;;;;;;;;11.41;100.00;101493.34;5022156;28;19948;-72
2022/10/17 02:46:23;;;;;;;;;;;;;;;11.40;100.00;101503.06;5022507;28;20024;-72
2022/10/17 02:48:58;;;;;;;;;;;;;;;11.40;100.00;101504.88;5027019;28;20364;-71
2022/10/17 02:51:52;;;;;;;;;;;;;;;11.39;100.00;101504.00;5027059;28;20016;-71
2022/10/17 02:54:19;;;;;;;;;;;;;;;11.39;100.00;101500.50;5026085;28;19932;-72
2022/10/17 02:56:47;;;;;;;;;;;;;;;11.42;100.00;101505.66;5044252;28;20210;-73
2022/10/17 02:59:13;;;;;;;;;;;;;;;11.43;100.00;101502.09;5020815;28;20480;-72
2022/10/17 03:01:39;;;;;;;;;;;;;;;11.47;100.00;101493.09;5021532;28;20093;-72
2022/10/17 03:04:08;;;;;;;;;;;;;;;11.49;100.00;101483.28;5026784;28;19933;-73
2022/10/17 03:06:33;;;;;;;;;;;;;;;11.50;100.00;101479.72;5026414;28;19924;-72
2022/10/17 03:08:58;;;;;;;;;;;;;;;11.51;100.00;101473.47;5026161;28;19925;-73
2022/10/17 03:11:24;;;;;;;;;;;;;;;11.52;100.00;101469.94;5026615;28;20031;-73
2022/10/17 03:13:49;;;;;;;;;;;;;;;11.53;100.00;101465.47;5027527;28;19932;-71
2022/10/17 03:16:14;;;;;;;;;;;;;;;11.54;100.00;101467.19;5030244;28;20079;-71
2022/10/17 03:18:40;;;;;;;;;;;;;;;11.55;100.00;101468.91;5030699;28;19929;-72
2022/10/17 03:21:05;;;;;;;;;;;;;;;11.55;100.00;101464.50;5025854;28;20384;-72
2022/10/17 03:23:30;;;;;;;;;;;;;;;11.55;100.00;101464.50;5030395;28;19935;-72
2022/10/17 03:25:55;;;;;;;;;;;;;;;11.54;100.00;101470.72;5030092;28;20241;-72
2022/10/17 03:28:21;;;;;;;;;;;;;;;11.52;100.00;101475.25;5030775;28;19932;-72
2022/10/17 03:30:46;;;;;;;;;;;;;;;11.52;100.00;101475.25;5031066;28;19934;-72
2022/10/17 03:33:12;;;;;;;;;;;;;;;11.53;100.00;101487.56;5030353;28;19928;-73
2022/10/17 03:35:37;;;;;;;;;;;;;;;11.54;100.00;101483.09;5031204;28;19964;-73
2022/10/17 03:38:03;;;;;;;;;;;;;;;11.56;100.00;101475.97;5030761;28;19956;-73
2022/10/17 03:40:28;;;;;;;;;;;;;;;11.60;100.00;101463.47;5031285;28;19924;-71
2022/10/17 03:42:53;;;;;;;;;;;;;;;11.62;100.00;101464.25;5030627;28;20019;-72
2022/10/17 03:45:19;;;;;;;;;;;;;;;11.67;100.00;101468.44;5047945;28;19929;-71
2022/10/17 03:47:44;;;;;;;;;;;;;;;11.69;100.00;101452.47;5030211;28;19936;-71
2022/10/17 03:50:09;;;;;;;;;;;;;;;11.72;100.00;101462.94;5030266;28;20003;-71
2022/10/17 03:52:35;;;;;;;;;;;;;;;11.75;100.00;101472.56;5047254;28;19936;-72
2022/10/17 03:55:00;;;;;;;;;;;;;;;11.76;100.00;101475.16;5030142;28;19933;-72
2022/10/17 03:57:25;;;;;;;;;;;;;;;11.78;100.00;101480.41;5030783;28;19929;-72
2022/10/17 03:59:51;;;;;;;;;;;;;;;11.80;100.00;101478.56;5030716;28;20591;-71
2022/10/17 04:02:16;;;;;;;;;;;;;;;11.82;100.00;101480.22;5038458;28;19983;-72
2022/10/17 04:04:42;;;;;;;;;;;;;;;11.86;100.00;101480.09;5024735;28;19980;-71
2022/10/17 04:07:07;;;;;;;;;;;;;;;11.88;100.00;101480.91;5047451;28;19936;-71
2022/10/17 04:09:32;;;;;;;;;;;;;;;11.90;100.00;101474.63;5047921;28;19950;-71
2022/10/17 04:11:57;;;;;;;;;;;;;;;11.92;100.00;101478.06;5014575;28;20591;-71
2022/10/17 04:14:23;;;;;;;;;;;;;;;11.94;100.00;101478.00;5030521;28;19925;-72
2022/10/17 04:16:48;;;;;;;;;;;;;;;11.95;100.00;101477.06;5025435;28;21150;-72
2022/10/17 04:19:13;;;;;;;;;;;;;;;11.98;100.00;101481.41;5029473;28;19933;-72
2022/10/17 04:21:39;;;;;;;;;;;;;;;12.00;100.00;101490.16;5029916;28;19933;-72
2022/10/17 04:24:04;;;;;;;;;;;;;;;12.01;100.00;101498.06;5025568;28;20012;-72
2022/10/17 04:26:30;;;;;;;;;;;;;;;12.03;100.00;101497.97;5024034;28;19975;-72
2022/10/17 04:28:55;;;;;;;;;;;;;;;12.05;100.00;101497.03;5009585;28;20374;-72
2022/10/17 04:31:20;;;;;;;;;;;;;;;12.07;100.00;101503.16;5030629;28;19933;-71
2022/10/17 04:33:46;;;;;;;;;;;;;;;12.12;100.00;101499.41;5023905;28;19927;-71
2022/10/17 04:36:13;;;;;;;;;;;;;;;12.14;100.00;101502.91;5030119;28;19957;-71
2022/10/17 04:38:38;;;;;;;;;;;;;;;12.17;100.00;101486.81;5029730;28;19936;-71
2022/10/17 04:41:05;;;;;;;;;;;;;;;12.18;100.00;101480.59;5030494;28;19933;-71
2022/10/17 04:43:34;;;;;;;;;;;;;;;12.20;100.00;101466.31;5029996;28;20011;-71
2022/10/17 04:46:00;;;;;;;;;;;;;;;12.25;100.00;101471.44;5024593;28;19928;-71
2022/10/17 04:48:26;;;;;;;;;;;;;;;12.28;100.00;101470.44;5028892;28;19939;-72
2022/10/17 04:50:59;;;;;;;;;;;;;;;12.31;100.00;101463.22;5033668;28;20668;-72
2022/10/17 04:53:25;;;;;;;;;;;;;;;12.35;100.00;101454.19;5025491;28;19956;-72
2022/10/17 04:55:51;;;;;;;;;;;;;;;12.38;100.00;101455.84;5011289;28;20300;-72
2022/10/17 04:58:17;;;;;;;;;;;;;;;12.43;100.00;101455.66;5029250;28;19939;-72
2022/10/17 05:00:42;;;;;;;;;;;;;;;12.47;100.00;101452.78;5029592;28;19939;-72
2022/10/17 05:03:08;;;;;;;;;;;;;;;12.51;100.00;101453.53;5029225;28;20396;-72
2022/10/17 05:05:36;;;;;;;;;;;;;;;12.56;100.00;101455.97;5023927;28;20199;-72
2022/10/17 05:08:01;;;;;;;;;;;;;;;12.60;100.00;101455.75;5028263;28;20315;-72
2022/10/17 05:10:27;;;;;;;;;;;;;;;12.64;100.00;101459.13;5029576;28;20086;-71
2022/10/17 05:12:52;;;;;;;;;;;;;;;12.67;100.00;101448.41;5027288;28;19979;-72
2022/10/17 05:15:17;;;;;;;;;;;;;;;12.71;100.00;101450.00;5045607;28;19925;-72
2022/10/17 05:17:43;;;;;;;;;;;;;;;12.74;100.00;101443.66;5023648;28;21850;-72
2022/10/17 05:20:08;;;;;;;;;;;;;;;12.79;100.00;101454.94;5028447;28;20065;-72
2022/10/17 05:22:33;;;;;;;;;;;;;;;12.82;100.00;101451.28;5022872;28;20027;-72
2022/10/17 05:24:59;;;;;;;;;;;;;;;12.84;100.00;101441.44;5028694;28;19975;-72
2022/10/17 05:27:24;;;;;;;;;;;;;;;12.87;100.00;101443.97;5029114;28;19929;-72
2022/10/17 05:29:49;;;;;;;;;;;;;;;12.88;100.00;101440.38;5027817;28;20616;-71
2022/10/17 05:32:15;;;;;;;;;;;;;;;12.89;100.00;101453.59;5029003;28;19929;-71
2022/10/17 05:34:40;;;;;;;;;;;;;;;12.90;100.00;101452.66;5026403;28;20399;-71
2022/10/17 05:37:06;;;;;;;;;;;;;;;12.92;100.00;101463.25;5024815;28;19971;-72
2022/10/17 05:39:31;;;;;;;;;;;;;;;12.96;100.00;101454.19;5028576;28;19929;-71
2022/10/17 05:41:56;;;;;;;;;;;;;;;12.97;100.00;101439.09;5029442;28;20387;-71
2022/10/17 05:44:22;;;;;;;;;;;;;;;12.99;100.00;101448.72;5028847;28;20457;-71
2022/10/17 05:46:48;;;;;;;;;;;;;;;13.01;100.00;101452.19;5008748;28;19925;-71
2022/10/17 05:49:13;;;;;;;;;;;;;;;13.02;100.00;101447.72;5022818;28;20013;-71
2022/10/17 05:51:39;;;;;;;;;;;;;;;13.05;100.00;101447.56;5028757;28;21397;-71
2022/10/17 05:54:04;;;;;;;;;;;;;;;13.06;100.00;101454.63;5036037;28;19982;-71
2022/10/17 05:56:30;;;;;;;;;;;;;;;13.09;100.00;101446.50;5023118;28;19929;-71
2022/10/17 05:58:55;;;;;;;;;;;;;;;13.13;100.00;101450.75;5027825;28;20273;-71
2022/10/17 06:01:20;;;;;;;;;;;;;;;13.16;100.00;101449.72;5027785;28;21372;-71
2022/10/17 06:03:46;;;;;;;;;;;;;;;13.17;100.00;101455.00;5027883;28;20313;-71
2022/10/17 06:06:12;;;;;;;;;;;;;;;13.22;100.00;101459.22;5027781;28;20851;-72
2022/10/17 06:08:37;;;;;;;;;;;;;;;13.24;100.00;101468.00;5027696;28;19925;-72
2022/10/17 06:11:03;;;;;;;;;;;;;;;13.25;100.00;101461.75;5027953;28;20060;-72
2022/10/17 06:13:28;;;;;;;;;;;;;;;13.26;100.00;101482.06;5022767;28;19929;-73
2022/10/17 06:15:53;;;;;;;;;;;;;;;13.26;100.00;101482.94;5027487;28;19937;-72
2022/10/17 06:18:19;;;;;;;;;;;;;;;13.26;100.00;101487.38;5026975;28;20569;-72
2022/10/17 06:20:44;;;;;;;;;;;;;;;13.27;100.00;101492.66;5025843;28;20363;-72
2022/10/17 06:23:09;;;;;;;;;;;;;;;13.29;100.00;101487.25;5021446;28;19933;-73
2022/10/17 06:25:35;;;;;;;;;;;;;;;13.29;100.00;101485.44;5033961;28;20572;-73
2022/10/17 06:28:00;;;;;;;;;;;;;;;13.29;100.00;101504.06;5026745;28;20446;-73
2022/10/17 06:30:25;;;;;;;;;;;;;;;13.32;100.00;101503.06;5021744;28;20394;-72
2022/10/17 06:32:51;;;;;;;;;;;;;;;13.33;100.00;101502.13;5022052;28;20378;-72
2022/10/17 06:35:17;;;;;;;;;;;;;;;13.35;100.00;101508.22;5025398;28;19924;-73
2022/10/17 06:37:43;;;;;;;;;;;;;;;13.36;100.00;101504.66;5027617;28;19972;-72
2022/10/17 06:40:09;;;;;;;;;;;;;;;13.38;100.00;101496.59;5027832;28;20059;-72
2022/10/17 06:42:34;;;;;;;;;;;;;;;13.40;100.00;101494.75;5027352;28;20348;-72
2022/10/17 06:44:59;;;;;;;;;;;;;;;13.42;100.00;101501.69;5027728;28;19966;-72
2022/10/17 06:47:25;;;;;;;;;;;;;;;13.46;100.00;101501.59;5027094;28;19933;-73
2022/10/17 06:49:50;;;;;;;;;;;;;;;13.48;100.00;101503.25;5030460;28;19932;-72
2022/10/17 06:52:16;;;;;;;;;;;;;;;13.51;100.00;101513.72;5026567;28;19929;-72
2022/10/17 06:54:41;;;;;;;;;;;;;;;13.53;100.00;101522.50;5049437;28;19932;-72
2022/10/17 06:57:07;;;;;;;;;;;;;;;13.57;100.00;101528.56;5031804;28;19933;-73
2022/10/17 06:59:32;;;;;;;;;;;;;;;13.59;100.00;101521.34;5031260;28;19932;-73
2022/10/17 07:01:59;;;;;;;;;;;;;;;13.60;100.00;101533.72;5030414;28;19931;-72
2022/10/17 07:04:25;;;;;;;;;;;;;;;13.63;100.00;101543.34;5031868;28;19928;-72
2022/10/17 07:06:50;;;;;;;;;;;;;;;13.65;100.00;101547.66;5031037;28;20413;-72
2022/10/17 07:09:15;;;;;;;;;;;;;;;13.70;100.00;101547.44;5030709;28;20562;-71
2022/10/17 07:11:41;;;;;;;;;;;;;;;13.77;100.00;101542.72;5031106;28;19924;-73
2022/10/17 07:14:06;;;;;;;;;;;;;;;13.81;100.00;101544.28;5031859;28;20311;-73
2022/10/17 07:16:32;;;;;;;;;;;;;;;13.85;100.00;101540.53;5027714;28;19935;-72
2022/10/17 07:18:57;;;;;;;;;;;;;;;13.88;100.00;101539.53;5029709;28;20368;-72
2022/10/17 07:21:22;;;;;;;;;;;;;;;13.89;100.00;101539.44;5029160;28;19929;-70
2022/10/17 07:23:48;;;;;;;;;;;;;;;13.91;100.00;101558.88;5030547;28;20372;-70
2022/10/17 07:26:14;;;;;;;;;;;;;;;13.96;100.00;101566.63;5026907;28;20140;-70
2022/10/17 07:28:40;;;;;;;;;;;;;;;13.99;100.00;101562.03;5029596;28;19933;-72
2022/10/17 07:31:07;;;;;;;;;;;;;;;14.03;100.00;101570.72;5026368;28;20651;-73
2022/10/17 07:33:32;;;;;;;;;;;;;;;14.07;100.00;101579.41;5030467;28;19971;-73
2022/10/17 07:35:59;;;;;;;;;;;;;;;14.10;100.00;101574.81;5031209;28;20015;-73
2022/10/17 07:38:24;;;;;;;;;;;;;;;14.15;100.00;101582.56;5017340;28;20346;-73
2022/10/17 07:40:53;;;;;;;;;;;;;;;14.19;100.00;101581.50;5031221;28;19924;-73
2022/10/17 07:43:19;;;;;;;;;;;;;;;14.24;100.00;101578.59;5025613;28;19936;-72
2022/10/17 07:45:44;;;;;;;;;;;;;;;14.30;100.00;101582.75;5027550;28;19932;-73
2022/10/17 07:48:09;;;;;;;;;;;;;;;14.35;100.00;101575.38;5029146;28;20426;-73
2022/10/17 07:50:35;;;;;;;;;;;;;;;14.39;100.00;101579.63;5026499;28;20564;-74
2022/10/17 07:53:28;;;;;;;;;;;;;;;14.44;100.00;101580.25;4963884;28;19928;-73
2022/10/17 07:59:31;;;;;;;;;;;;;;;14.51;100.00;101583.47;5026607;28;19995;-73
2022/10/17 08:01:58;;;;;;;;;;;;;;;14.54;100.00;101585.97;5007039;28;19929;-73
2022/10/17 08:04:23;;;;;;;;;;;;;;;14.59;100.00;101591.09;5028448;28;19917;-72
2022/10/17 08:06:49;;;;;;;;;;;;;;;14.64;100.00;101599.69;5050294;28;20043;-72
2022/10/17 08:09:14;;;;;;;;;;;;;;;14.68;100.00;101590.63;5032687;28;19929;-72
2022/10/17 08:11:42;;;;;;;;;;;;;;;14.71;100.00;101595.78;5034266;28;20392;-72
2022/10/17 08:14:08;;;;;;;;;;;;;;;14.74;100.00;101590.34;5029644;28;20596;-72
2022/10/17 08:16:33;;;;;;;;;;;;;;;14.75;100.00;101581.41;5028564;28;19929;-71
2022/10/17 08:18:58;;;;;;;;;;;;;;;14.78;100.00;101585.72;5029410;28;19940;-72
2022/10/17 08:21:23;;;;;;;;;;;;;;;14.79;100.00;101585.66;5032818;28;19932;-72
2022/10/17 08:23:49;;;;;;;;;;;;;;;14.80;100.00;101584.69;5049482;28;19986;-72
2022/10/17 08:26:16;;;;;;;;;;;;;;;14.82;100.00;101586.41;5034492;28;20375;-72
2022/10/17 08:28:41;;;;;;;;;;;;;;;14.84;100.00;101596.06;5034910;28;19929;-72
2022/10/17 08:31:08;;;;;;;;;;;;;;;14.87;100.00;101592.38;5031368;28;20343;-72
2022/10/17 08:33:33;;;;;;;;;;;;;;;14.90;100.00;101616.19;5029892;28;19921;-72
2022/10/17 08:35:59;;;;;;;;;;;;;;;14.92;100.00;101631.19;5034327;28;19948;-73
2022/10/17 08:38:25;;;;;;;;;;;;;;;14.95;100.00;101643.50;5027660;28;20347;-73
2022/10/17 08:40:50;;;;;;;;;;;;;;;14.96;100.00;101652.34;5032807;28;19933;-73
2022/10/17 08:43:34;;;;;;;;;;;;;;;14.96;100.00;101671.00;5050348;28;19996;-73
2022/10/17 08:46:01;;;;;;;;;;;;;;;14.96;100.00;101673.66;5032475;28;20411;-73
2022/10/17 08:48:27;;;;;;;;;;;;;;;14.96;100.00;101684.31;5049339;28;19925;-73
2022/10/17 08:50:55;;;;;;;;;;;;;;;14.97;100.00;101697.59;5032915;28;20117;-73
2022/10/17 08:53:36;;;;;;;;;;;;;;;14.99;100.00;101710.84;5015012;28;20344;-73
2022/10/17 08:56:05;;;;;;;;;;;;;;;14.99;100.00;101733.03;5032793;28;19932;-73
2022/10/17 08:58:32;;;;;;;;;;;;;;;15.03;100.00;101733.78;5026937;28;20370;-73
2022/10/17 09:01:03;;;;;;;;;;;;;;;15.08;100.00;101745.03;5031962;28;20342;-73
2022/10/17 09:03:48;;;;;;;;;;;;;;;15.14;100.00;101741.22;5031960;28;20161;-72
2022/10/17 09:06:17;;;;;;;;;;;;;;;15.19;100.00;101750.72;5049618;28;19925;-72
2022/10/17 09:08:43;;;;;;;;;;;;;;;15.21;100.00;101759.47;5049940;28;19971;-72
2022/10/17 09:11:11;;;;;;;;;;;;;;;15.22;100.00;101760.34;5032334;28;20349;-72
2022/10/17 09:13:40;;;;;;;;;;;;;;;15.21;100.00;101775.50;5033038;28;20071;-72
2022/10/17 09:16:11;;;;;;;;;;;;;;;15.20;100.00;101780.94;5032544;28;19929;-73
2022/10/17 09:18:40;;;;;;;;;;;;;;;15.17;100.00;101789.94;5033272;28;19932;-73
2022/10/17 09:21:15;;;;;;;;;;;;;;;15.15;100.00;101790.94;5026977;28;20095;-72
2022/10/17 09:23:44;;;;;;;;;;;;;;;15.10;100.00;101783.19;5031365;28;19929;-72
2022/10/17 09:26:10;;;;;;;;;;;;;;;15.06;100.00;101789.59;5032403;28;20477;-72
2022/10/17 09:28:39;;;;;;;;;;;;;;;15.03;100.00;101787.94;5032080;28;19974;-73
2022/10/17 09:31:22;;;;;;;;;;;;;;;15.01;100.00;101794.28;5026389;28;20375;-72
2022/10/17 09:33:49;;;;;;;;;;;;;;;14.96;100.00;101790.97;5024865;28;19924;-73
2022/10/17 09:36:23;;;;;;;;;;;;;;;14.93;100.00;101786.69;5026453;28;19929;-72
2022/10/17 09:38:56;;;;;;;;;;;;;;;14.90;100.00;101794.81;5030643;28;21366;-72
2022/10/17 09:41:23;;;;;;;;;;;;;;;14.88;100.00;101783.38;5046547;28;19935;-72
2022/10/17 09:43:50;;;;;;;;;;;;;;;14.86;100.00;101795.91;5022772;28;20372;-72
2022/10/17 09:46:26;;;;;;;;;;;;;;;14.83;100.00;101794.25;5024204;28;19948;-72
2022/10/17 09:49:00;;;;;;;;;;;;;;;14.79;100.00;101790.88;5047315;28;19935;-73
2022/10/17 09:51:25;;;;;;;;;;;;;;;14.79;100.00;101792.66;5047223;28;20371;-73
2022/10/17 09:53:55;;;;;;;;;;;;;;;14.76;100.00;101791.00;5024420;28;20122;-75
2022/10/17 09:56:20;;;;;;;;;;;;;;;14.74;100.00;101786.69;5025078;28;20819;-75
2022/10/17 09:58:47;;;;;;;;;;;;;;;14.72;100.00;101781.44;5030912;28;20075;-74
2022/10/17 10:01:20;;;;;;;;;;;;;;;14.70;100.00;101756.63;5028955;28;20469;-74
2022/10/17 10:03:46;;;;;;;;;;;;;;;14.69;100.00;101752.25;5029578;28;19929;-74
2022/10/17 10:06:11;;;;;;;;;;;;;;;14.68;100.00;101753.19;5043353;28;20443;-74
2022/10/17 10:08:50;;;;;;;;;;;;;;;14.67;100.00;101765.63;5031863;28;19928;-74
2022/10/17 10:11:16;;;;;;;;;;;;;;;14.69;100.00;101768.22;5031383;28;19925;-75
2022/10/17 10:13:42;;;;;;;;;;;;;;;14.69;100.00;101773.56;5011935;28;20375;-75
2022/10/17 10:16:31;;;;;;;;;;;;;;;14.70;100.00;101769.97;5023412;28;21341;-74
2022/10/17 10:18:57;;;;;;;;;;;;;;;14.72;100.00;101777.88;5025940;28;19924;-73
2022/10/17 10:21:25;;;;;;;;;;;;;;;14.72;100.00;101773.44;5031242;28;19971;-75
2022/10/17 10:24:09;;;;;;;;;;;;;;;14.72;100.00;101776.09;5021225;28;20249;-74
2022/10/17 10:26:47;;;;;;;;;;;;;;;14.74;100.00;101781.34;5027073;28;20565;-74
2022/10/17 10:29:21;;;;;;;;;;;;;;;14.75;100.00;101781.28;5024685;28;20001;-75
2022/10/17 10:31:46;;;;;;;;;;;;;;;14.78;100.00;101775.81;5025981;28;20373;-75
2022/10/17 10:34:19;;;;;;;;;;;;;;;14.83;100.00;101748.06;5046652;28;20044;-75
2022/10/17 10:36:45;;;;;;;;;;;;;;;14.84;100.00;101763.13;5031882;28;19972;-74
2022/10/17 10:39:15;;;;;;;;;;;;;;;14.83;100.00;101774.72;5030828;28;20015;-74
2022/10/17 10:41:45;;;;;;;;;;;;;;;14.84;100.00;101768.44;5024255;28;19932;-75
2022/10/17 10:44:12;;;;;;;;;;;;;;;14.83;100.00;101764.94;5030230;28;19925;-74
2022/10/17 10:46:37;;;;;;;;;;;;;;;14.84;100.00;101771.13;5030937;28;20451;-74
2022/10/17 10:49:02;;;;;;;;;;;;;;;14.87;100.00;101792.31;5023844;28;20457;-74
2022/10/17 10:51:30;;;;;;;;;;;;;;;14.88;100.00;101799.38;5026651;28;19925;-74
2022/10/17 10:53:56;;;;;;;;;;;;;;;14.87;100.00;101792.31;5028392;28;19929;-78
2022/10/17 10:56:27;;;;;;;;;;;;;;;14.88;100.00;101794.03;5032396;28;19983;-78
2022/10/17 10:58:57;;;;;;;;;;;;;;;14.87;100.00;101800.31;5031941;28;19933;-76
2022/10/17 11:01:28;;;;;;;;;;;;;;;14.88;100.00;101808.22;5008497;28;20414;-75
2022/10/17 11:03:56;;;;;;;;;;;;;;;14.89;100.00;101814.41;5030244;28;19925;-75
2022/10/17 11:06:23;;;;;;;;;;;;;;;14.89;100.00;101812.63;5046973;28;20168;-77
2022/10/17 11:09:03;;;;;;;;;;;;;;;14.91;100.00;101823.19;5012735;28;20388;-74
2022/10/17 11:11:40;;;;;;;;;;;;;;;14.92;100.00;101822.25;5025773;28;19929;-75
2022/10/17 11:14:10;;;;;;;;;;;;;;;14.94;100.00;101821.25;5048446;28;20543;-75
2022/10/17 11:16:37;;;;;;;;;;;;;;;14.96;100.00;101834.50;5026253;28;19935;-75
2022/10/17 11:19:06;;;;;;;;;;;;;;;14.98;100.00;101842.44;5025506;28;19932;-75
2022/10/17 11:21:34;;;;;;;;;;;;;;;14.99;100.00;101844.16;5029159;28;19925;-74
2022/10/17 11:24:02;;;;;;;;;;;;;;;15.03;100.00;101841.28;5025340;28;19924;-74
2022/10/17 11:26:30;;;;;;;;;;;;;;;15.07;100.00;101847.31;5028395;28;20020;-74
2022/10/17 11:28:56;;;;;;;;;;;;;;;15.06;100.00;101858.94;5023812;28;21386;-74
2022/10/17 11:31:22;;;;;;;;;;;;;;;15.03;100.00;101861.75;5024674;28;20387;-74
2022/10/17 11:33:48;;;;;;;;;;;;;;;14.98;100.00;101869.09;5047874;28;19938;-74
2022/10/17 11:36:15;;;;;;;;;;;;;;;14.93;100.00;101872.84;5028483;28;19975;-74
2022/10/17 11:38:46;;;;;;;;;;;;;;;14.91;100.00;101864.06;5051741;28;19935;-74
2022/10/17 11:41:13;;;;;;;;;;;;;;;14.91;100.00;101869.41;5034144;28;19928;-74
2022/10/17 11:43:44;;;;;;;;;;;;;;;14.94;100.00;101876.38;5028552;28;19925;-75
2022/10/17 11:46:17;;;;;;;;;;;;;;;14.96;100.00;101879.84;5027310;28;19940;-74
2022/10/17 11:48:47;;;;;;;;;;;;;;;15.00;100.00;101876.09;5027835;28;19929;-74
2022/10/17 11:51:13;;;;;;;;;;;;;;;15.09;100.00;101873.94;5032906;28;19929;-73
2022/10/17 11:53:47;;;;;;;;;;;;;;;15.19;100.00;101875.19;5033020;28;19935;-74
2022/10/17 11:56:14;;;;;;;;;;;;;;;15.27;100.00;101878.38;5032768;28;20039;-74
2022/10/17 11:58:42;;;;;;;;;;;;;;;15.30;100.00;101883.53;5028299;28;20071;-74
2022/10/17 12:01:10;;;;;;;;;;;;;;;15.31;100.00;101884.41;5032878;28;21221;-74
2022/10/17 12:03:39;;;;;;;;;;;;;;;15.30;100.00;101886.22;5032819;28;20457;-74
2022/10/17 12:06:24;;;;;;;;;;;;;;;15.29;100.00;101892.50;5034437;28;20346;-74
2022/10/17 12:09:10;;;;;;;;;;;;;;;15.25;100.00;101901.56;5033141;28;19963;-74
2022/10/17 12:11:55;;;;;;;;;;;;;;;15.21;100.00;101902.69;5034638;28;20027;-75
2022/10/17 12:14:33;;;;;;;;;;;;;;;15.14;100.00;101910.09;5048985;28;20023;-74
2022/10/17 12:17:00;;;;;;;;;;;;;;;15.12;100.00;101905.75;5031772;28;20008;-74
2022/10/17 12:19:27;;;;;;;;;;;;;;;15.06;100.00;101914.94;5049331;28;19931;-74
2022/10/17 12:22:01;;;;;;;;;;;;;;;15.01;100.00;101920.50;5050669;28;19931;-75
2022/10/17 12:24:29;;;;;;;;;;;;;;;14.96;100.00;101924.28;5027364;28;19931;-75
2022/10/17 12:26:55;;;;;;;;;;;;;;;14.94;100.00;101924.38;5026477;28;19925;-76
2022/10/17 12:29:27;;;;;;;;;;;;;;;14.90;100.00;101933.44;5009985;28;20522;-76
2022/10/17 12:31:53;;;;;;;;;;;;;;;14.86;100.00;101927.41;5049578;28;20075;-75
2022/10/17 12:34:18;;;;;;;;;;;;;;;14.85;100.00;101938.13;5048573;28;19929;-77